sensor_id;sensor_type;location;lat;lon;timestamp;pressure;altitude;pressure_sealevel;temperature;humidity
57628;BME280;43451;49.060;10.616;2023-03-21T00:01:01;96952.16;;;6.78;100.00
57628;BME280;43451;49.060;10.616;2023-03-21T00:03:28;96955.72;;;6.82;100.00
57628;BME280;43451;49.060;10.616;2023-03-21T00:05:54;96950.00;;;6.87;100.00
57628;BME280;43451;49.060;10.616;2023-03-21T00:08:23;96954.28;;;6.88;100.00
57628;BME280;43451;49.060;10.616;2023-03-21T00:10:56;96946.19;;;6.88;100.00
57628;BME280;43451;49.060;10.616;2023-03-21T00:13:21;96948.47;;;6.86;100.00
57628;BME280;43451;49.060;10.616;2023-03-21T00:15:46;96948.09;;;6.88;100.00
57628;BME280;43451;49.060;10.616;2023-03-21T00:18:15;96948.47;;;6.86;100.00
57628;BME280;43451;49.060;10.616;2023-03-21T00:20:41;96941.56;;;6.89;100.00
57628;BME280;43451;49.060;10.616;2023-03-21T00:23:06;96945.88;;;6.93;100.00
57628;BME280;43451;49.060;10.616;2023-03-21T00:25:32;96941.66;;;6.96;100.00
57628;BME280;43451;49.060;10.616;2023-03-21T00:27:57;96939.75;;;6.96;100.00
57628;BME280;43451;49.060;10.616;2023-03-21T00:30:23;96938.25;;;6.99;100.00
57628;BME280;43451;49.060;10.616;2023-03-21T00:32:48;96936.28;;;6.96;100.00
57628;BME280;43451;49.060;10.616;2023-03-21T00:35:14;96933.88;;;6.91;100.00
57628;BME280;43451;49.060;10.616;2023-03-21T00:37:39;96933.50;;;6.92;100.00
57628;BME280;43451;49.060;10.616;2023-03-21T00:40:04;96930.81;;;6.92;100.00
57628;BME280;43451;49.060;10.616;2023-03-21T00:42:34;96928.41;;;6.87;100.00
57628;BME280;43451;49.060;10.616;2023-03-21T00:44:59;96920.72;;;6.89;100.00
57628;BME280;43451;49.060;10.616;2023-03-21T00:47:26;96918.47;;;6.91;100.00
57628;BME280;43451;49.060;10.616;2023-03-21T00:49:51;96921.56;;;6.93;100.00
57628;BME280;43451;49.060;10.616;2023-03-21T00:52:16;96922.22;;;6.87;100.00
57628;BME280;43451;49.060;10.616;2023-03-21T00:54:42;96918.38;;;6.88;100.00
57628;BME280;43451;49.060;10.616;2023-03-21T00:57:07;96915.22;;;6.82;100.00
57628;BME280;43451;49.060;10.616;2023-03-21T00:59:32;96920.19;;;6.80;100.00
57628;BME280;43451;49.060;10.616;2023-03-21T01:01:58;96908.63;;;6.80;100.00
57628;BME280;43451;49.060;10.616;2023-03-21T01:04:24;96914.38;;;6.78;100.00
57628;BME280;43451;49.060;10.616;2023-03-21T01:06:50;96910.13;;;6.77;100.00
57628;BME280;43451;49.060;10.616;2023-03-21T01:09:16;96907.84;;;6.79;100.00
57628;BME280;43451;49.060;10.616;2023-03-21T01:11:43;96909.44;;;6.84;100.00
57628;BME280;43451;49.060;10.616;2023-03-21T01:14:09;96904.44;;;6.82;100.00
57628;BME280;43451;49.060;10.616;2023-03-21T01:16:35;96903.28;;;6.83;100.00
57628;BME280;43451;49.060;10.616;2023-03-21T01:19:00;96902.13;;;6.84;100.00
57628;BME280;43451;49.060;10.616;2023-03-21T01:21:26;96909.09;;;6.85;100.00
57628;BME280;43451;49.060;10.616;2023-03-21T01:23:51;96906.31;;;6.82;100.00
57628;BME280;43451;49.060;10.616;2023-03-21T01:26:17;96905.97;;;6.83;100.00
57628;BME280;43451;49.060;10.616;2023-03-21T01:28:42;96906.41;;;6.85;100.00
57628;BME280;43451;49.060;10.616;2023-03-21T01:31:09;96899.09;;;6.86;100.00
57628;BME280;43451;49.060;10.616;2023-03-21T01:33:35;96895.22;;;6.87;100.00
57628;BME280;43451;49.060;10.616;2023-03-21T01:36:00;96894.44;;;6.86;100.00
57628;BME280;43451;49.060;10.616;2023-03-21T01:38:26;96899.84;;;6.86;100.00
57628;BME280;43451;49.060;10.616;2023-03-21T01:40:51;96896.66;;;6.81;100.00
57628;BME280;43451;49.060;10.616;2023-03-21T01:48:36;96899.56;;;6.68;100.00
57628;BME280;43451;49.060;10.616;2023-03-21T01:51:03;96906.88;;;6.68;100.00
57628;BME280;43451;49.060;10.616;2023-03-21T01:53:29;96902.19;;;6.65;100.00
57628;BME280;43451;49.060;10.616;2023-03-21T01:55:58;96904.47;;;6.63;100.00
57628;BME280;43451;49.060;10.616;2023-03-21T01:58:25;96902.63;;;6.67;100.00
57628;BME280;43451;49.060;10.616;2023-03-21T02:00:51;96908.44;;;6.69;100.00
57628;BME280;43451;49.060;10.616;2023-03-21T02:03:19;96896.50;;;6.70;100.00
57628;BME280;43451;49.060;10.616;2023-03-21T02:05:50;96901.19;;;6.73;100.00
57628;BME280;43451;49.060;10.616;2023-03-21T02:08:16;96891.16;;;6.73;100.00
57628;BME280;43451;49.060;10.616;2023-03-21T02:10:42;96893.16;;;6.77;100.00
57628;BME280;43451;49.060;10.616;2023-03-21T02:13:09;96888.94;;;6.79;100.00
57628;BME280;43451;49.060;10.616;2023-03-21T02:15:40;96885.09;;;6.80;100.00
57628;BME280;43451;49.060;10.616;2023-03-21T02:25:48;96876.69;;;6.85;100.00
57628;BME280;43451;49.060;10.616;2023-03-21T02:28:24;96870.44;;;6.81;100.00
57628;BME280;43451;49.060;10.616;2023-03-21T02:33:40;96864.66;;;6.79;100.00
57628;BME280;43451;49.060;10.616;2023-03-21T02:38:52;96865.72;;;6.74;100.00
57628;BME280;43451;49.060;10.616;2023-03-21T02:49:08;96861.94;;;6.79;100.00
57628;BME280;43451;49.060;10.616;2023-03-21T02:51:36;96858.03;;;6.77;100.00
57628;BME280;43451;49.060;10.616;2023-03-21T02:54:08;96855.69;;;6.75;100.00
57628;BME280;43451;49.060;10.616;2023-03-21T02:56:36;96864.22;;;6.77;100.00
57628;BME280;43451;49.060;10.616;2023-03-21T02:59:02;96863.06;;;6.78;100.00
57628;BME280;43451;49.060;10.616;2023-03-21T03:01:28;96860.38;;;6.78;100.00
57628;BME280;43451;49.060;10.616;2023-03-21T03:03:53;96862.72;;;6.80;100.00
57628;BME280;43451;49.060;10.616;2023-03-21T03:06:23;96867.34;;;6.79;100.00
57628;BME280;43451;49.060;10.616;2023-03-21T03:09:05;96859.25;;;6.79;100.00
57628;BME280;43451;49.060;10.616;2023-03-21T03:11:35;96861.91;;;6.76;100.00
57628;BME280;43451;49.060;10.616;2023-03-21T03:19:14;96849.53;;;6.74;100.00
57628;BME280;43451;49.060;10.616;2023-03-21T03:21:53;96852.22;;;6.74;100.00
57628;BME280;43451;49.060;10.616;2023-03-21T03:24:21;96857.28;;;6.76;100.00
57628;BME280;43451;49.060;10.616;2023-03-21T03:26:56;96851.97;;;6.83;100.00
57628;BME280;43451;49.060;10.616;2023-03-21T03:29:23;96859.25;;;6.79;100.00
57628;BME280;43451;49.060;10.616;2023-03-21T03:32:23;96850.28;;;6.75;100.00
57628;BME280;43451;49.060;10.616;2023-03-21T03:34:43;96856.50;;;6.76;100.00
57628;BME280;43451;49.060;10.616;2023-03-21T03:37:15;96858.03;;;6.77;100.00
57628;BME280;43451;49.060;10.616;2023-03-21T03:39:45;96857.47;;;6.64;100.00
57628;BME280;43451;49.060;10.616;2023-03-21T03:42:16;96853.19;;;6.63;100.00
57628;BME280;43451;49.060;10.616;2023-03-21T03:44:43;96856.31;;;6.65;100.00
57628;BME280;43451;49.060;10.616;2023-03-21T03:47:15;96852.47;;;6.66;100.00
57628;BME280;43451;49.060;10.616;2023-03-21T03:49:49;96848.22;;;6.65;100.00
57628;BME280;43451;49.060;10.616;2023-03-21T03:54:43;96854.44;;;6.69;100.00
57628;BME280;43451;49.060;10.616;2023-03-21T03:57:09;96854.03;;;6.67;100.00
57628;BME280;43451;49.060;10.616;2023-03-21T03:59:37;96845.50;;;6.65;100.00
57628;BME280;43451;49.060;10.616;2023-03-21T04:02:04;96850.91;;;6.65;100.00
57628;BME280;43451;49.060;10.616;2023-03-21T04:04:29;96849.38;;;6.64;100.00
57628;BME280;43451;49.060;10.616;2023-03-21T04:06:56;96841.28;;;6.64;100.00
57628;BME280;43451;49.060;10.616;2023-03-21T04:09:22;96849.72;;;6.62;100.00
57628;BME280;43451;49.060;10.616;2023-03-21T04:11:47;96844.25;;;6.59;100.00
57628;BME280;43451;49.060;10.616;2023-03-21T04:14:13;96845.41;;;6.58;100.00
57628;BME280;43451;49.060;10.616;2023-03-21T04:16:38;96842.28;;;6.56;100.00
57628;BME280;43451;49.060;10.616;2023-03-21T04:19:04;96838.47;;;6.57;100.00
57628;BME280;43451;49.060;10.616;2023-03-21T04:21:29;96847.69;;;6.56;100.00
57628;BME280;43451;49.060;10.616;2023-03-21T04:23:54;96850.38;;;6.56;100.00
57628;BME280;43451;49.060;10.616;2023-03-21T04:26:20;96844.22;;;6.55;100.00
57628;BME280;43451;49.060;10.616;2023-03-21T04:28:46;96844.97;;;6.56;100.00
57628;BME280;43451;49.060;10.616;2023-03-21T04:31:12;96846.13;;;6.55;100.00
57628;BME280;43451;49.060;10.616;2023-03-21T04:33:38;96841.88;;;6.54;100.00
57628;BME280;43451;49.060;10.616;2023-03-21T04:36:06;96841.09;;;6.53;100.00
57628;BME280;43451;49.060;10.616;2023-03-21T04:38:33;96839.91;;;6.50;100.00
57628;BME280;43451;49.060;10.616;2023-03-21T04:40:59;96836.41;;;6.50;100.00
57628;BME280;43451;49.060;10.616;2023-03-21T04:43:25;96842.91;;;6.45;100.00
57628;BME280;43451;49.060;10.616;2023-03-21T04:45:50;96841.28;;;6.41;100.00
57628;BME280;43451;49.060;10.616;2023-03-21T04:48:16;96842.06;;;6.41;100.00
57628;BME280;43451;49.060;10.616;2023-03-21T04:50:43;96835.19;;;6.44;100.00
57628;BME280;43451;49.060;10.616;2023-03-21T04:53:09;96837.94;;;6.47;100.00
57628;BME280;43451;49.060;10.616;2023-03-21T04:55:34;96841.75;;;6.46;100.00
57628;BME280;43451;49.060;10.616;2023-03-21T04:58:01;96837.94;;;6.47;100.00
57628;BME280;43451;49.060;10.616;2023-03-21T05:00:27;96835.63;;;6.49;100.00
57628;BME280;43451;49.060;10.616;2023-03-21T05:02:52;96834.50;;;6.50;100.00
57628;BME280;43451;49.060;10.616;2023-03-21T05:05:18;96837.59;;;6.53;100.00
57628;BME280;43451;49.060;10.616;2023-03-21T05:07:43;96843.06;;;6.56;100.00
57628;BME280;43451;49.060;10.616;2023-03-21T05:10:09;96839.59;;;6.56;100.00
57628;BME280;43451;49.060;10.616;2023-03-21T05:12:36;96846.19;;;6.58;100.00
57628;BME280;43451;49.060;10.616;2023-03-21T05:15:01;96846.63;;;6.60;100.00
57628;BME280;43451;49.060;10.616;2023-03-21T05:17:27;96838.53;;;6.60;100.00
57628;BME280;43451;49.060;10.616;2023-03-21T05:19:53;96848.53;;;6.60;100.00
57628;BME280;43451;49.060;10.616;2023-03-21T05:22:20;96846.19;;;6.58;100.00
57628;BME280;43451;49.060;10.616;2023-03-21T05:24:46;96845.41;;;6.58;100.00
57628;BME280;43451;49.060;10.616;2023-03-21T05:27:18;96846.13;;;6.55;100.00
57628;BME280;43451;49.060;10.616;2023-03-21T05:30:13;96854.22;;;6.55;100.00
57628;BME280;43451;49.060;10.616;2023-03-21T05:32:38;96852.31;;;6.55;100.00
57628;BME280;43451;49.060;10.616;2023-03-21T05:35:04;96844.97;;;6.56;100.00
57628;BME280;43451;49.060;10.616;2023-03-21T05:37:30;96847.34;;;6.57;100.00
57628;BME280;43451;49.060;10.616;2023-03-21T05:39:55;96847.50;;;6.68;100.00
57628;BME280;43451;49.060;10.616;2023-03-21T05:42:21;96855.16;;;6.66;100.00
57628;BME280;43451;49.060;10.616;2023-03-21T05:44:46;96857.13;;;6.69;100.00
57628;BME280;43451;49.060;10.616;2023-03-21T05:47:12;96852.47;;;6.66;100.00
57628;BME280;43451;49.060;10.616;2023-03-21T05:49:37;96856.31;;;6.65;100.00
57628;BME280;43451;49.060;10.616;2023-03-21T05:52:03;96854.03;;;6.67;100.00
57628;BME280;43451;49.060;10.616;2023-03-21T05:54:28;96862.53;;;6.69;100.00
57628;BME280;43451;49.060;10.616;2023-03-21T05:56:53;96863.41;;;6.73;100.00
57628;BME280;43451;49.060;10.616;2023-03-21T05:59:19;96860.69;;;6.73;100.00
57628;BME280;43451;49.060;10.616;2023-03-21T06:01:44;96857.28;;;6.76;100.00
57628;BME280;43451;49.060;10.616;2023-03-21T06:04:10;96865.81;;;6.82;100.00
57628;BME280;43451;49.060;10.616;2023-03-21T06:06:35;96865.47;;;6.83;100.00
57628;BME280;43451;49.060;10.616;2023-03-21T06:09:00;96858.91;;;6.84;100.00
57628;BME280;43451;49.060;10.616;2023-03-21T06:11:30;96854.28;;;6.85;100.00
57628;BME280;43451;49.060;10.616;2023-03-21T06:13:56;96855.91;;;6.89;100.00
57628;BME280;43451;49.060;10.616;2023-03-21T06:16:21;96846.66;;;6.90;100.00
57628;BME280;43451;49.060;10.616;2023-03-21T06:18:47;96852.16;;;6.97;100.00
57628;BME280;43451;49.060;10.616;2023-03-21T06:21:12;96849.59;;;7.05;100.00
57628;BME280;43451;49.060;10.616;2023-03-21T06:23:38;96843.84;;;7.10;100.00
57628;BME280;43451;49.060;10.616;2023-03-21T06:26:03;96852.47;;;7.19;100.00
57628;BME280;43451;49.060;10.616;2023-03-21T06:28:29;96842.50;;;7.23;100.00
57628;BME280;43451;49.060;10.616;2023-03-21T06:30:55;96849.19;;;7.33;100.00
57628;BME280;43451;49.060;10.616;2023-03-21T06:33:20;96851.56;;;7.38;100.00
57628;BME280;43451;49.060;10.616;2023-03-21T06:35:52;96845.91;;;7.50;100.00
57628;BME280;43451;49.060;10.616;2023-03-21T06:38:18;96856.03;;;7.57;100.00
57628;BME280;43451;49.060;10.616;2023-03-21T06:40:46;96858.81;;;7.64;100.00
57628;BME280;43451;49.060;10.616;2023-03-21T06:43:12;96848.06;;;7.67;100.00
57628;BME280;43451;49.060;10.616;2023-03-21T06:45:38;96847.38;;;7.74;100.00
57628;BME280;43451;49.060;10.616;2023-03-21T06:48:04;96848.94;;;7.79;100.00
57628;BME280;43451;49.060;10.616;2023-03-21T06:50:29;96852.50;;;7.86;100.00
57628;BME280;43451;49.060;10.616;2023-03-21T06:52:54;96858.00;;;7.94;100.00
57628;BME280;43451;49.060;10.616;2023-03-21T06:55:21;96853.94;;;8.10;100.00
57628;BME280;43451;49.060;10.616;2023-03-21T06:57:50;96845.50;;;8.19;100.00
57628;BME280;43451;49.060;10.616;2023-03-21T07:00:16;96860.06;;;8.45;100.00
57628;BME280;43451;49.060;10.616;2023-03-21T07:02:42;96850.75;;;8.39;100.00
57628;BME280;43451;49.060;10.616;2023-03-21T07:05:07;96858.41;;;8.36;100.00
57628;BME280;43451;49.060;10.616;2023-03-21T07:07:33;96861.56;;;8.39;100.00
57628;BME280;43451;49.060;10.616;2023-03-21T07:09:58;96857.06;;;8.53;100.00
57628;BME280;43451;49.060;10.616;2023-03-21T07:12:23;96861.69;;;8.53;100.00
57628;BME280;43451;49.060;10.616;2023-03-21T07:14:49;96865.59;;;8.59;100.00
57628;BME280;43451;49.060;10.616;2023-03-21T07:17:14;96873.09;;;8.73;100.00
57628;BME280;43451;49.060;10.616;2023-03-21T07:19:40;96871.09;;;8.66;100.00
57628;BME280;43451;49.060;10.616;2023-03-21T07:22:05;96869.59;;;8.72;100.00
57628;BME280;43451;49.060;10.616;2023-03-21T07:24:30;96864.59;;;8.78;100.00
57628;BME280;43451;49.060;10.616;2023-03-21T07:26:56;96868.16;;;8.86;100.00
57628;BME280;43451;49.060;10.616;2023-03-21T07:29:21;96861.97;;;8.89;100.00
57628;BME280;43451;49.060;10.616;2023-03-21T07:31:47;96852.72;;;8.97;100.00
57628;BME280;43451;49.060;10.616;2023-03-21T07:34:12;96859.75;;;9.01;100.00
57628;BME280;43451;49.060;10.616;2023-03-21T07:36:40;96860.56;;;9.09;100.00
57628;BME280;43451;49.060;10.616;2023-03-21T07:39:06;96866.38;;;9.11;100.00
57628;BME280;43451;49.060;10.616;2023-03-21T07:41:31;96859.03;;;9.12;100.00
57628;BME280;43451;49.060;10.616;2023-03-21T07:43:56;96860.19;;;9.14;100.00
57628;BME280;43451;49.060;10.616;2023-03-21T07:46:22;96852.53;;;9.30;100.00
57628;BME280;43451;49.060;10.616;2023-03-21T07:48:47;96853.78;;;9.44;100.00
57628;BME280;43451;49.060;10.616;2023-03-21T07:51:13;96861.16;;;9.54;100.00
57628;BME280;43451;49.060;10.616;2023-03-21T07:53:38;96845.72;;;9.58;100.00
57628;BME280;43451;49.060;10.616;2023-03-21T07:56:06;96850.75;;;9.67;100.00
57628;BME280;43451;49.060;10.616;2023-03-21T07:58:32;96849.22;;;9.69;100.00
57628;BME280;43451;49.060;10.616;2023-03-21T08:00:58;96854.59;;;9.55;100.00
57628;BME280;43451;49.060;10.616;2023-03-21T08:03:24;96853.00;;;9.47;100.00
57628;BME280;43451;49.060;10.616;2023-03-21T08:05:53;96850.41;;;9.72;100.00
57628;BME280;43451;49.060;10.616;2023-03-21T08:08:18;96851.56;;;9.67;100.00
57628;BME280;43451;49.060;10.616;2023-03-21T08:10:43;96853.53;;;9.85;100.00
57628;BME280;43451;49.060;10.616;2023-03-21T08:13:09;96846.13;;;9.67;100.00
57628;BME280;43451;49.060;10.616;2023-03-21T08:15:34;96846.16;;;9.82;100.00
57628;BME280;43451;49.060;10.616;2023-03-21T08:17:59;96845.81;;;9.83;100.00
57628;BME280;43451;49.060;10.616;2023-03-21T08:20:25;96843.44;;;9.78;100.00
57628;BME280;43451;49.060;10.616;2023-03-21T08:22:51;96843.06;;;9.80;100.00
57628;BME280;43451;49.060;10.616;2023-03-21T08:25:17;96845.38;;;9.77;100.00
57628;BME280;43451;49.060;10.616;2023-03-21T08:27:44;96843.84;;;9.80;100.00
57628;BME280;43451;49.060;10.616;2023-03-21T08:30:11;96838.84;;;9.93;100.00
57628;BME280;43451;49.060;10.616;2023-03-21T08:32:37;96843.94;;;10.12;100.00
57628;BME280;43451;49.060;10.616;2023-03-21T08:35:03;96836.97;;;10.26;100.00
57628;BME280;43451;49.060;10.616;2023-03-21T08:37:29;96834.63;;;10.20;100.00
57628;BME280;43451;49.060;10.616;2023-03-21T08:39:54;96827.69;;;10.34;99.80
57628;BME280;43451;49.060;10.616;2023-03-21T08:42:20;96837.78;;;10.44;97.55
57628;BME280;43451;49.060;10.616;2023-03-21T08:44:46;96836.63;;;10.45;96.79
57628;BME280;43451;49.060;10.616;2023-03-21T08:47:11;96837.00;;;10.61;98.33
57628;BME280;43451;49.060;10.616;2023-03-21T08:49:37;96840.91;;;10.82;95.68
57628;BME280;43451;49.060;10.616;2023-03-21T08:52:02;96838.91;;;10.97;94.13
57628;BME280;43451;49.060;10.616;2023-03-21T08:54:28;96837.75;;;10.87;89.58
57628;BME280;43451;49.060;10.616;2023-03-21T08:56:53;96838.13;;;11.03;93.13
57628;BME280;43451;49.060;10.616;2023-03-21T08:59:19;96829.25;;;10.71;92.09
57628;BME280;43451;49.060;10.616;2023-03-21T09:01:44;96830.03;;;10.57;93.52
57628;BME280;43451;49.060;10.616;2023-03-21T09:04:10;96829.22;;;10.78;96.21
57628;BME280;43451;49.060;10.616;2023-03-21T09:06:36;96834.69;;;10.85;89.32
57628;BME280;43451;49.060;10.616;2023-03-21T09:09:02;96831.91;;;11.06;90.84
57628;BME280;43451;49.060;10.616;2023-03-21T09:11:29;96828.03;;;11.14;90.15
57628;BME280;43451;49.060;10.616;2023-03-21T09:13:55;96826.78;;;11.37;87.43
57628;BME280;43451;49.060;10.616;2023-03-21T09:16:20;96836.97;;;11.11;90.75
57628;BME280;43451;49.060;10.616;2023-03-21T09:18:45;96823.69;;;11.31;90.41
57628;BME280;43451;49.060;10.616;2023-03-21T09:21:13;96828.66;;;11.58;89.85
57628;BME280;43451;49.060;10.616;2023-03-21T09:23:39;96821.09;;;11.98;85.26
57628;BME280;43451;49.060;10.616;2023-03-21T09:26:05;96822.66;;;11.99;78.72
57628;BME280;43451;49.060;10.616;2023-03-21T09:28:31;96820.25;;;12.08;77.96
57628;BME280;43451;49.060;10.616;2023-03-21T09:30:57;96813.75;;;11.91;90.31
57628;BME280;43451;49.060;10.616;2023-03-21T09:33:26;96821.06;;;12.01;83.32
57628;BME280;43451;49.060;10.616;2023-03-21T09:35:53;96821.06;;;12.05;84.42
57628;BME280;43451;49.060;10.616;2023-03-21T09:38:19;96820.63;;;12.14;81.99
57628;BME280;43451;49.060;10.616;2023-03-21T09:40:56;96820.28;;;12.04;78.50
57628;BME280;43451;49.060;10.616;2023-03-21T09:43:37;96816.84;;;11.97;80.06
57628;BME280;43451;49.060;10.616;2023-03-21T09:46:09;96810.50;;;12.14;78.86
57628;BME280;43451;49.060;10.616;2023-03-21T09:51:05;96817.78;;;12.31;80.37
57628;BME280;43451;49.060;10.616;2023-03-21T09:53:35;96809.97;;;12.37;81.99
57628;BME280;43451;49.060;10.616;2023-03-21T09:56:03;96813.84;;;12.36;74.05
57628;BME280;43451;49.060;10.616;2023-03-21T09:58:31;96805.22;;;12.45;76.25
57628;BME280;43451;49.060;10.616;2023-03-21T10:00:59;96812.00;;;12.22;77.85
57628;BME280;43451;49.060;10.616;2023-03-21T10:03:30;96814.63;;;12.40;79.23
57628;BME280;43451;49.060;10.616;2023-03-21T10:05:59;96809.97;;;12.37;76.19
57628;BME280;43451;49.060;10.616;2023-03-21T10:08:31;96809.16;;;12.40;74.92
57628;BME280;43451;49.060;10.616;2023-03-21T10:11:23;96806.84;;;12.35;80.43
57628;BME280;43451;49.060;10.616;2023-03-21T10:16:20;96795.25;;;12.24;74.25
57628;BME280;43451;49.060;10.616;2023-03-21T10:18:49;96791.47;;;12.11;76.51
57628;BME280;43451;49.060;10.616;2023-03-21T10:21:33;96788.25;;;12.23;80.80
57628;BME280;43451;49.060;10.616;2023-03-21T10:23:58;96795.25;;;12.27;77.91
57628;BME280;43451;49.060;10.616;2023-03-21T10:26:24;96788.56;;;12.36;76.08
57628;BME280;43451;49.060;10.616;2023-03-21T10:28:53;96783.53;;;12.34;76.40
57628;BME280;43451;49.060;10.616;2023-03-21T10:31:20;96783.47;;;12.41;76.89
57628;BME280;43451;49.060;10.616;2023-03-21T10:33:49;96780.66;;;12.48;80.02
57628;BME280;43451;49.060;10.616;2023-03-21T10:36:15;96773.66;;;12.51;77.63
57628;BME280;43451;49.060;10.616;2023-03-21T10:38:45;96769.84;;;12.41;76.22
57628;BME280;43451;49.060;10.616;2023-03-21T10:41:10;96769.47;;;12.36;72.06
57628;BME280;43451;49.060;10.616;2023-03-21T10:43:37;96770.88;;;12.54;73.90
57628;BME280;43451;49.060;10.616;2023-03-21T10:46:05;96761.13;;;12.57;72.92
57628;BME280;43451;49.060;10.616;2023-03-21T10:48:35;96763.91;;;12.53;78.16
57628;BME280;43451;49.060;10.616;2023-03-21T10:51:01;96759.88;;;12.69;73.85
57628;BME280;43451;49.060;10.616;2023-03-21T10:53:39;96764.78;;;12.85;78.63
57628;BME280;43451;49.060;10.616;2023-03-21T10:56:06;96765.47;;;12.92;80.06
57628;BME280;43451;49.060;10.616;2023-03-21T10:58:43;96752.38;;;13.14;76.57
57628;BME280;43451;49.060;10.616;2023-03-21T11:01:12;96747.09;;;13.34;74.54
57628;BME280;43451;49.060;10.616;2023-03-21T11:03:41;96753.47;;;13.20;72.90
57628;BME280;43451;49.060;10.616;2023-03-21T11:06:11;96759.31;;;13.19;76.91
57628;BME280;43451;49.060;10.616;2023-03-21T11:08:39;96759.97;;;13.34;71.02
57628;BME280;43451;49.060;10.616;2023-03-21T11:11:06;96749.56;;;13.56;71.54
57628;BME280;43451;49.060;10.616;2023-03-21T11:13:35;96743.16;;;13.66;69.44
57628;BME280;43451;49.060;10.616;2023-03-21T11:16:05;96743.69;;;13.84;68.30
57628;BME280;43451;49.060;10.616;2023-03-21T11:18:32;96737.94;;;14.06;70.83
57628;BME280;43451;49.060;10.616;2023-03-21T11:20:59;96735.31;;;13.99;65.46
57628;BME280;43451;49.060;10.616;2023-03-21T11:23:31;96741.84;;;13.47;68.01
57628;BME280;43451;49.060;10.616;2023-03-21T11:25:57;96737.97;;;13.48;73.02
57628;BME280;43451;49.060;10.616;2023-03-21T11:28:25;96732.78;;;13.23;67.36
57628;BME280;43451;49.060;10.616;2023-03-21T11:30:58;96726.91;;;13.59;61.81
57628;BME280;43451;49.060;10.616;2023-03-21T11:33:25;96733.72;;;13.74;73.66
57628;BME280;43451;49.060;10.616;2023-03-21T11:35:58;96716.47;;;14.04;68.59
57628;BME280;43451;49.060;10.616;2023-03-21T11:38:26;96717.41;;;14.21;65.57
57628;BME280;43451;49.060;10.616;2023-03-21T11:40:55;96713.94;;;14.40;65.27
57628;BME280;43451;49.060;10.616;2023-03-21T11:46:06;96720.53;;;14.67;65.76
57628;BME280;43451;49.060;10.616;2023-03-21T11:48:32;96719.91;;;14.59;64.00
57628;BME280;43451;49.060;10.616;2023-03-21T11:51:06;96706.22;;;14.12;72.30
57628;BME280;43451;49.060;10.616;2023-03-21T11:53:36;96702.28;;;13.62;75.92
57628;BME280;43451;49.060;10.616;2023-03-21T11:56:19;96704.19;;;13.65;73.40
57628;BME280;43451;49.060;10.616;2023-03-21T12:01:21;96706.13;;;13.92;71.58
57628;BME280;43451;49.060;10.616;2023-03-21T12:09:06;96697.41;;;14.48;60.49
57628;BME280;43451;49.060;10.616;2023-03-21T12:16:59;96685.38;;;14.69;63.02
57628;BME280;43451;49.060;10.616;2023-03-21T12:24:36;96676.59;;;14.77;61.09
57628;BME280;43451;49.060;10.616;2023-03-21T12:27:48;96671.00;;;14.84;67.08
57628;BME280;43451;49.060;10.616;2023-03-21T12:40:46;96646.78;;;14.83;68.07
57628;BME280;43451;49.060;10.616;2023-03-21T12:45:53;96646.06;;;14.99;67.27
57628;BME280;43451;49.060;10.616;2023-03-21T12:50:45;96637.09;;;15.35;60.32
57628;BME280;43451;49.060;10.616;2023-03-21T12:55:38;96634.84;;;15.66;59.76
57628;BME280;43451;49.060;10.616;2023-03-21T12:58:15;96630.50;;;15.68;59.09
57628;BME280;43451;49.060;10.616;2023-03-21T13:00:46;96625.59;;;15.60;57.95
57628;BME280;43451;49.060;10.616;2023-03-21T13:03:17;96630.50;;;15.85;54.11
57628;BME280;43451;49.060;10.616;2023-03-21T13:05:50;96622.47;;;15.77;55.72
57628;BME280;43451;49.060;10.616;2023-03-21T13:10:43;96619.06;;;15.73;58.92
57628;BME280;43451;49.060;10.616;2023-03-21T13:15:46;96616.13;;;15.97;56.17
57628;BME280;43451;49.060;10.616;2023-03-21T13:20:57;96608.19;;;15.70;61.91
57628;BME280;43451;49.060;10.616;2023-03-21T13:23:32;96607.38;;;15.53;57.86
57628;BME280;43451;49.060;10.616;2023-03-21T13:25:58;96602.16;;;15.59;60.22
57628;BME280;43451;49.060;10.616;2023-03-21T13:28:27;96602.16;;;15.59;61.95
57628;BME280;43451;49.060;10.616;2023-03-21T13:31:05;96603.94;;;15.49;59.13
57628;BME280;43451;49.060;10.616;2023-03-21T13:33:38;96602.91;;;15.43;60.34
57628;BME280;43451;49.060;10.616;2023-03-21T13:36:11;96592.97;;;15.32;67.36
57628;BME280;43451;49.060;10.616;2023-03-21T13:38:37;96592.16;;;15.16;68.97
57628;BME280;43451;49.060;10.616;2023-03-21T14:01:58;96571.50;;;15.31;59.55
57628;BME280;43451;49.060;10.616;2023-03-21T14:04:28;96573.91;;;15.62;56.43
57628;BME280;43451;49.060;10.616;2023-03-21T14:09:29;96572.50;;;15.73;58.62
57628;BME280;43451;49.060;10.616;2023-03-21T14:11:56;96573.81;;;15.65;57.17
57628;BME280;43451;49.060;10.616;2023-03-21T14:14:23;96566.63;;;15.39;60.30
57628;BME280;43451;49.060;10.616;2023-03-21T14:16:53;96560.34;;;15.05;59.94
57628;BME280;43451;49.060;10.616;2023-03-21T14:19:19;96559.50;;;14.72;66.57
57628;BME280;43451;49.060;10.616;2023-03-21T14:21:46;96557.88;;;14.75;61.00
57628;BME280;43451;49.060;10.616;2023-03-21T14:24:14;96555.09;;;14.95;60.12
57628;BME280;43451;49.060;10.616;2023-03-21T14:26:47;96560.13;;;15.32;58.76
57628;BME280;43451;49.060;10.616;2023-03-21T14:29:18;96542.84;;;15.19;58.31
57628;BME280;43451;49.060;10.616;2023-03-21T14:31:44;96545.22;;;15.17;60.59
57628;BME280;43451;49.060;10.616;2023-03-21T14:34:11;96545.88;;;14.89;68.17
57628;BME280;43451;49.060;10.616;2023-03-21T14:36:39;96543.41;;;14.94;61.39
57628;BME280;43451;49.060;10.616;2023-03-21T14:39:16;96542.94;;;14.79;64.42
57628;BME280;43451;49.060;10.616;2023-03-21T14:41:43;96540.88;;;14.83;61.74